createdAt,value
2022-09-17T00:01:32.972Z,98451.13
2022-09-17T00:04:04.033Z,98455.50
2022-09-17T00:06:35.694Z,98454.66
2022-09-17T00:09:08.174Z,98461.75
2022-09-17T00:11:40.903Z,98459.38
2022-09-17T00:14:15.275Z,98461.22
2022-09-17T00:16:47.714Z,98459.69
2022-09-17T00:19:23.368Z,98456.16
2022-09-17T00:21:51.801Z,98454.34
2022-09-17T00:24:20.793Z,98452.72
2022-09-17T00:26:50.065Z,98452.97
2022-09-17T00:29:17.675Z,98456.50
2022-09-17T00:31:44.969Z,98456.50
2022-09-17T00:34:12.316Z,98451.22
2022-09-17T00:36:40.227Z,98444.22
2022-09-17T00:39:11.317Z,98454.94
2022-09-17T00:41:39.741Z,98452.31
2022-09-17T00:44:53.805Z,98458.50
2022-09-17T00:47:39.637Z,98468.34
2022-09-17T00:50:21.764Z,98471.84
2022-09-17T00:53:06.916Z,98474.75
2022-09-17T00:55:57.024Z,98480.09
2022-09-17T00:58:26.260Z,98480.22
2022-09-17T01:00:53.979Z,98482.03
2022-09-17T01:03:22.021Z,98485.63
2022-09-17T01:06:14.567Z,98479.50
2022-09-17T01:09:07.727Z,98483.94
2022-09-17T01:12:30.029Z,98492.84
2022-09-17T01:15:24.302Z,98491.31
2022-09-17T01:18:33.960Z,98505.50
2022-09-17T01:21:38.205Z,98507.31
2022-09-17T01:24:44.717Z,98509.09
2022-09-17T01:27:35.060Z,98519.72
2022-09-17T01:30:40.189Z,98510.81
2022-09-17T01:33:28.774Z,98514.31
2022-09-17T01:36:34.340Z,98521.47
2022-09-17T01:39:45.260Z,98521.53
2022-09-17T01:42:47.562Z,98539.31
2022-09-17T01:45:30.923Z,98536.78
2022-09-17T01:48:19.834Z,98538.59
2022-09-17T01:51:14.775Z,98546.56
2022-09-17T01:53:59.651Z,98552.78
2022-09-17T01:56:36.809Z,98550.19
2022-09-17T01:59:22.992Z,98549.28
2022-09-17T02:01:58.366Z,98565.19
2022-09-17T02:04:42.831Z,98567.84
2022-09-17T02:07:22.696Z,98567.81
2022-09-17T02:10:37.049Z,98570.44
2022-09-17T02:13:16.996Z,98579.25
2022-09-17T02:15:54.101Z,98585.44
2022-09-17T02:18:54.370Z,98591.59
2022-09-17T02:21:58.607Z,98593.44
2022-09-17T02:25:11.330Z,98594.28
2022-09-17T02:27:58.868Z,98603.16
2022-09-17T02:30:26.385Z,98599.66
2022-09-17T02:32:55.727Z,98602.34
2022-09-17T02:35:23.720Z,98596.28
2022-09-17T02:37:53.093Z,98590.97
2022-09-17T02:40:24.241Z,98593.59
2022-09-17T02:43:56.976Z,98594.47
2022-09-17T02:46:58.924Z,98610.38
2022-09-17T02:50:14.883Z,98613.06
2022-09-17T02:53:15.440Z,98611.31
2022-09-17T02:56:08.917Z,98612.19
2022-09-17T02:59:12.743Z,98621.88
2022-09-17T03:02:18.390Z,98621.91
2022-09-17T03:04:49.766Z,98615.75
2022-09-17T03:07:20.180Z,98626.34
2022-09-17T03:09:47.771Z,98620.22
2022-09-17T03:12:16.562Z,98614.91
2022-09-17T03:14:43.888Z,98618.38
2022-09-17T03:17:12.247Z,98613.09
2022-09-17T03:19:39.542Z,98604.34
2022-09-17T03:22:06.875Z,98593.78
2022-09-17T03:24:34.021Z,98566.44
2022-09-17T03:27:01.345Z,98582.34
2022-09-17T03:29:28.688Z,98599.09
2022-09-17T03:31:55.873Z,98599.13
2022-09-17T03:34:23.857Z,98592.06
2022-09-17T03:36:51.153Z,98589.41
2022-09-17T03:39:18.481Z,98598.22
2022-09-17T03:41:46.241Z,98599.13
2022-09-17T03:44:15.241Z,98607.03
2022-09-17T03:46:43.518Z,98614.97
2022-09-17T03:49:10.816Z,98618.47
2022-09-17T03:51:37.951Z,98616.72
2022-09-17T03:54:05.311Z,98606.13
2022-09-17T03:56:32.982Z,98607.00
2022-09-17T03:59:01.893Z,98614.94
2022-09-17T04:01:29.929Z,98624.63
2022-09-17T04:03:57.954Z,98631.66
2022-09-17T04:06:25.381Z,98651.03
2022-09-17T04:08:53.056Z,98656.31
2022-09-17T04:11:20.567Z,98660.72
2022-09-17T04:13:47.886Z,98664.25
2022-09-17T04:16:15.457Z,98659.88
2022-09-17T04:18:42.722Z,98677.47
2022-09-17T04:21:09.973Z,98673.91
2022-09-17T04:23:37.116Z,98695.06
2022-09-17T04:26:04.603Z,98686.25
2022-09-17T04:28:31.804Z,98688.91
2022-09-17T04:30:59.012Z,98693.28
2022-09-17T04:33:26.448Z,98707.38
2022-09-17T04:35:54.292Z,98702.06
2022-09-17T04:38:22.405Z,98707.34
2022-09-17T04:40:51.473Z,98706.44
2022-09-17T04:43:19.008Z,98702.00
2022-09-17T04:45:49.247Z,98708.13
2022-09-17T04:48:17.233Z,98717.84
2022-09-17T04:50:44.785Z,98719.63
2022-09-17T04:53:12.826Z,98717.00
2022-09-17T04:55:40.448Z,98724.94
2022-09-17T04:58:07.634Z,98723.16
2022-09-17T05:00:35.571Z,98723.16
2022-09-17T05:03:03.562Z,98730.16
2022-09-17T05:05:30.796Z,98748.59
2022-09-17T05:07:58.308Z,98747.63
2022-09-17T05:10:26.302Z,98724.75
2022-09-17T05:12:56.383Z,98723.03
2022-09-17T05:15:26.009Z,98712.50
2022-09-17T05:17:53.524Z,98735.31
2022-09-17T05:20:21.093Z,98737.88
2022-09-17T05:22:51.880Z,98730.78
2022-09-17T05:25:25.070Z,98714.13
2022-09-17T05:27:56.291Z,98715.09
2022-09-17T05:30:23.901Z,98719.47
2022-09-17T05:33:05.656Z,98719.44
2022-09-17T05:35:35.878Z,98729.97
2022-09-17T05:38:07.601Z,98725.50
2022-09-17T05:40:38.362Z,98719.38
2022-09-17T05:43:07.255Z,98723.03
2022-09-17T05:45:36.127Z,98722.09
2022-09-17T05:48:13.156Z,98720.34
2022-09-17T05:50:41.452Z,98725.59
2022-09-17T05:53:12.690Z,98741.44
2022-09-17T05:55:40.517Z,98748.44
2022-09-17T05:58:18.785Z,98758.03
2022-09-17T06:00:48.751Z,98761.44
2022-09-17T06:03:22.044Z,98771.19
2022-09-17T06:05:59.072Z,98772.97
2022-09-17T06:08:28.850Z,98788.00
2022-09-17T06:11:01.521Z,98781.03
2022-09-17T06:13:29.850Z,98798.66
2022-09-17T06:15:57.366Z,98797.00
2022-09-17T06:18:24.727Z,98797.00
2022-09-17T06:21:00.852Z,98796.97
2022-09-17T06:23:35.150Z,98792.56
2022-09-17T06:26:04.903Z,98795.31
2022-09-17T06:28:34.259Z,98800.56
2022-09-17T06:31:06.594Z,98807.56
2022-09-17T06:33:34.908Z,98803.16
2022-09-17T06:36:13.080Z,98797.97
2022-09-17T06:38:41.373Z,98798.94
2022-09-17T06:41:08.799Z,98800.69
2022-09-17T06:43:36.130Z,98802.44
2022-09-17T06:46:06.164Z,98797.19
2022-09-17T06:48:35.802Z,98792.81
2022-09-17T06:51:10.628Z,98797.22
2022-09-17T06:53:38.977Z,98804.31
2022-09-17T06:56:09.034Z,98811.41
2022-09-17T06:58:37.546Z,98815.84
2022-09-17T07:01:05.766Z,98816.72
2022-09-17T07:03:34.578Z,98831.78
2022-09-17T07:06:02.081Z,98831.81
2022-09-17T07:08:32.360Z,98828.31
2022-09-17T07:10:59.729Z,98834.47
2022-09-17T07:13:27.206Z,98841.53
2022-09-17T07:15:57.913Z,98840.66
2022-09-17T07:18:26.789Z,98844.22
2022-09-17T07:20:57.035Z,98851.28
2022-09-17T07:23:31.086Z,98853.91
2022-09-17T07:26:03.319Z,98861.00
2022-09-17T07:28:30.797Z,98868.94
2022-09-17T07:30:58.467Z,98881.31
2022-09-17T07:33:28.072Z,98880.41
2022-09-17T07:36:06.190Z,98880.41
2022-09-17T07:38:35.074Z,98894.56
2022-09-17T07:41:14.983Z,98893.63
2022-09-17T07:43:43.545Z,98900.72
2022-09-17T07:46:20.566Z,98900.72
2022-09-17T07:48:49.180Z,98912.19
2022-09-17T07:51:24.113Z,98921.03
2022-09-17T07:53:58.114Z,98920.06
2022-09-17T07:56:27.582Z,98921.84
2022-09-17T07:58:55.618Z,98931.56
2022-09-17T08:01:23.266Z,98942.03
2022-09-17T08:03:54.279Z,98945.59
2022-09-17T08:06:28.152Z,98940.19
2022-09-17T08:08:58.672Z,98954.19
2022-09-17T08:11:54.647Z,98949.84
2022-09-17T08:14:16.856Z,98954.25
2022-09-17T08:16:47.528Z,98963.09
2022-09-17T08:19:19.018Z,98966.63
2022-09-17T08:21:47.320Z,98970.09
2022-09-17T08:24:14.609Z,99002.69
2022-09-17T08:26:42.073Z,99008.84
2022-09-17T08:29:11.267Z,99025.53
2022-09-17T08:31:38.576Z,99026.25
2022-09-17T08:34:10.204Z,99040.53
2022-09-17T08:36:38.745Z,99038.03
2022-09-17T08:39:05.993Z,99048.66
2022-09-17T08:42:05.486Z,99047.56
2022-09-17T08:44:42.904Z,99049.34
2022-09-17T08:47:38.717Z,99056.28
2022-09-17T08:50:34.614Z,99051.72
2022-09-17T08:53:39.197Z,99056.13
2022-09-17T08:56:19.917Z,99057.81
2022-09-17T08:59:21.561Z,99076.53
2022-09-17T09:02:04.186Z,99081.81
2022-09-17T09:04:57.258Z,99096.81
2022-09-17T09:07:35.003Z,99105.59
2022-09-17T09:10:29.527Z,99100.56
2022-09-17T09:13:00.263Z,99105.88
2022-09-17T09:15:52.325Z,99108.56
2022-09-17T09:18:27.287Z,99112.13
2022-09-17T09:21:13.057Z,99120.09
2022-09-17T09:24:04.338Z,99123.47
2022-09-17T09:26:45.099Z,99128.88
2022-09-17T09:29:30.405Z,99133.25
2022-09-17T09:33:01.692Z,99148.25
2022-09-17T09:35:32.114Z,99152.00
2022-09-17T09:38:09.705Z,99151.94
2022-09-17T09:40:57.268Z,99159.00
2022-09-17T09:43:59.843Z,99159.06
2022-09-17T09:47:13.271Z,99156.53
2022-09-17T09:50:05.429Z,99166.28
2022-09-17T09:53:06.434Z,99162.84
2022-09-17T09:56:28.501Z,99169.94
2022-09-17T09:58:55.694Z,99181.38
2022-09-17T10:01:23.108Z,99192.00
2022-09-17T10:03:54.013Z,99188.34
2022-09-17T10:06:21.491Z,99203.28
2022-09-17T10:08:57.753Z,99209.53
2022-09-17T10:11:35.084Z,99207.88
2022-09-17T10:14:28.521Z,99224.34
2022-09-17T10:17:21.597Z,99220.25
2022-09-17T10:20:07.778Z,99236.53
2022-09-17T10:22:45.892Z,99237.66
2022-09-17T10:25:34.771Z,99235.94
2022-09-17T10:28:06.230Z,99243.06
2022-09-17T10:30:35.081Z,99232.47
2022-09-17T10:33:14.082Z,99243.09
2022-09-17T10:35:41.712Z,99231.59
2022-09-17T10:38:46.357Z,99232.56
2022-09-17T10:41:22.419Z,99240.53
2022-09-17T10:43:51.466Z,99240.53
2022-09-17T10:46:29.324Z,99249.53
2022-09-17T10:49:39.504Z,99254.88
2022-09-17T10:52:34.261Z,99257.56
2022-09-17T10:55:34.009Z,99258.69
2022-09-17T10:58:40.390Z,99264.91
2022-09-17T11:01:28.579Z,99263.06
2022-09-17T11:04:29.661Z,99262.25
2022-09-17T11:07:33.554Z,99258.66
2022-09-17T11:10:33.197Z,99252.47
2022-09-17T11:13:47.088Z,99269.06
2022-09-17T11:16:44.658Z,99276.31
2022-09-17T11:19:57.044Z,99265.34
2022-09-17T11:23:07.053Z,99249.00
2022-09-17T11:26:05.957Z,99254.28
2022-09-17T11:29:22.673Z,99262.78
2022-09-17T11:32:29.688Z,99256.63
2022-09-17T11:35:11.623Z,99247.13
2022-09-17T11:38:39.660Z,99261.22
2022-09-17T11:41:17.329Z,99257.72
2022-09-17T11:44:20.109Z,99260.28
2022-09-17T11:47:10.897Z,99262.06
2022-09-17T11:50:00.345Z,99266.47
2022-09-17T11:52:44.938Z,99265.56
2022-09-17T11:55:46.502Z,99274.41
2022-09-17T11:58:51.342Z,99266.56
2022-09-17T12:01:58.050Z,99271.78
2022-09-17T12:04:45.727Z,99271.81
2022-09-17T12:07:48.408Z,99267.44
2022-09-17T12:10:43.589Z,99265.72
2022-09-17T12:13:22.861Z,99263.94
2022-09-17T12:16:01.420Z,99263.16
2022-09-17T12:18:50.771Z,99256.06
2022-09-17T12:21:55.101Z,99267.56
2022-09-17T12:24:29.024Z,99264.91
2022-09-17T12:26:56.130Z,99265.81
2022-09-17T12:30:05.451Z,99270.19
2022-09-17T12:33:18.852Z,99270.03
2022-09-17T12:36:13.173Z,99262.19
2022-09-17T12:39:13.283Z,99245.47
2022-09-17T12:41:47.157Z,99234.84
2022-09-17T12:44:41.441Z,99251.66
2022-09-17T12:47:45.157Z,99253.41
2022-09-17T12:51:13.627Z,99249.91
2022-09-17T12:54:24.897Z,99242.78
2022-09-17T12:57:16.601Z,99246.31
2022-09-17T13:00:05.223Z,99249.88
2022-09-17T13:02:49.451Z,99246.34
2022-09-17T13:05:39.077Z,99251.66
2022-09-17T13:08:55.561Z,99250.72
2022-09-17T13:12:10.723Z,99244.53
2022-09-17T13:15:03.568Z,99232.16
2022-09-17T13:18:26.242Z,99237.38
2022-09-17T13:21:17.195Z,99224.59
2022-09-17T13:23:49.113Z,99226.31
2022-09-17T13:26:21.310Z,99227.38
2022-09-17T13:28:52.399Z,99223.84
2022-09-17T13:31:44.553Z,99222.91
2022-09-17T13:34:17.910Z,99223.13
2022-09-17T13:36:59.497Z,99228.22
2022-09-17T13:39:34.029Z,99221.09
2022-09-17T13:42:35.226Z,99226.88
2022-09-17T13:45:13.505Z,99233.13
2022-09-17T13:48:02.381Z,99230.53
2022-09-17T13:50:35.195Z,99230.16
2022-09-17T13:53:14.525Z,99224.78
2022-09-17T13:55:52.944Z,99223.13
2022-09-17T13:58:20.031Z,99223.28
2022-09-17T14:01:14.560Z,99231.72
2022-09-17T14:03:44.107Z,99223.72
2022-09-17T14:06:11.369Z,99225.38
2022-09-17T14:08:44.263Z,99219.16
2022-09-17T14:11:23.491Z,99222.66
2022-09-17T14:14:04.164Z,99226.03
2022-09-17T14:16:38.616Z,99223.94
2022-09-17T14:19:47.751Z,99218.34
2022-09-17T14:22:25.519Z,99225.63
2022-09-17T14:24:54.606Z,99227.41
2022-09-17T14:27:50.860Z,99219.41
2022-09-17T14:30:30.359Z,99227.59
2022-09-17T14:33:26.192Z,99227.13
2022-09-17T14:36:10.569Z,99231.06
2022-09-17T14:38:48.150Z,99221.22
2022-09-17T14:41:15.177Z,99221.81
2022-09-17T14:44:08.160Z,99216.78
2022-09-17T14:46:49.836Z,99221.50
2022-09-17T14:49:33.425Z,99217.06
2022-09-17T14:52:02.740Z,99216.38
2022-09-17T14:54:36.016Z,99216.75
2022-09-17T14:57:09.618Z,99220.53
2022-09-17T14:59:57.425Z,99221.56
2022-09-17T15:02:37.050Z,99221.09
2022-09-17T15:05:27.037Z,99214.44
2022-09-17T15:08:11.215Z,99206.13
2022-09-17T15:11:00.198Z,99212.81
2022-09-17T15:13:48.693Z,99213.19
2022-09-17T15:16:27.097Z,99206.69
2022-09-17T15:19:06.488Z,99217.56
2022-09-17T15:21:49.022Z,99212.16
2022-09-17T15:24:34.810Z,99209.63
2022-09-17T15:27:39.601Z,99203.59
2022-09-17T15:30:22.660Z,99204.88
2022-09-17T15:32:57.074Z,99208.34
2022-09-17T15:35:33.989Z,99201.91
2022-09-17T15:38:24.082Z,99204.78
2022-09-17T15:40:52.765Z,99205.41
2022-09-17T15:43:33.030Z,99215.09
2022-09-17T15:46:31.422Z,99198.75
2022-09-17T15:49:02.496Z,99197.00
2022-09-17T15:51:34.756Z,99206.81
2022-09-17T15:54:31.462Z,99209.25
2022-09-17T15:57:01.473Z,99206.97
2022-09-17T15:59:33.355Z,99213.16
2022-09-17T16:02:02.267Z,99218.13
2022-09-17T16:04:34.487Z,99211.84
2022-09-17T16:07:07.887Z,99222.00
2022-09-17T16:09:50.650Z,99226.03
2022-09-17T16:12:25.998Z,99223.91
2022-09-17T16:15:01.337Z,99226.19
2022-09-17T16:17:45.161Z,99227.00
2022-09-17T16:20:25.710Z,99230.78
2022-09-17T16:22:53.861Z,99229.44
2022-09-17T16:25:27.150Z,99236.41
2022-09-17T16:28:11.102Z,99230.91
2022-09-17T16:30:47.720Z,99238.81
2022-09-17T16:33:17.599Z,99244.88
2022-09-17T16:35:44.963Z,99249.28
2022-09-17T16:38:12.936Z,99256.06
2022-09-17T16:40:49.621Z,99262.53
2022-09-17T16:43:16.812Z,99264.91
2022-09-17T16:46:07.346Z,99265.47
2022-09-17T16:48:34.913Z,99268.84
2022-09-17T16:51:08.677Z,99273.66
2022-09-17T16:53:36.003Z,99278.03
2022-09-17T16:56:11.971Z,99280.75
2022-09-17T16:58:40.152Z,99281.69
2022-09-17T17:01:15.714Z,99273.78
2022-09-17T17:03:45.431Z,99282.66
2022-09-17T17:06:18.172Z,99287.00
2022-09-17T17:08:45.513Z,99292.47
2022-09-17T17:11:13.934Z,99300.78
2022-09-17T17:13:45.154Z,99302.78
2022-09-17T17:16:15.019Z,99303.78
2022-09-17T17:18:44.593Z,99309.16
2022-09-17T17:21:14.538Z,99307.41
2022-09-17T17:23:44.829Z,99312.72
2022-09-17T17:26:12.609Z,99312.69
2022-09-17T17:28:40.000Z,99324.16
2022-09-17T17:31:07.550Z,99330.31
2022-09-17T17:33:35.549Z,99341.81
2022-09-17T17:36:08.170Z,99335.59
2022-09-17T17:38:37.089Z,99341.81
2022-09-17T17:41:15.529Z,99347.03
2022-09-17T17:43:42.727Z,99351.34
2022-09-17T17:46:12.277Z,99348.75
2022-09-17T17:48:39.840Z,99348.75
2022-09-17T17:51:11.468Z,99353.16
2022-09-17T17:53:42.857Z,99360.19
2022-09-17T17:56:11.876Z,99382.09
2022-09-17T17:58:40.182Z,99367.09
2022-09-17T18:01:31.406Z,99375.91
2022-09-17T18:04:02.650Z,99389.03
2022-09-17T18:06:30.875Z,99394.16
2022-09-17T18:08:58.397Z,99393.94
2022-09-17T18:11:26.155Z,99397.41
2022-09-17T18:14:00.340Z,99406.13
2022-09-17T18:16:29.224Z,99413.03
2022-09-17T18:18:58.316Z,99418.47
2022-09-17T18:21:26.828Z,99416.78
2022-09-17T18:23:54.541Z,99420.25
2022-09-17T18:26:27.807Z,99429.81
2022-09-17T18:28:55.734Z,99428.00
2022-09-17T18:31:29.539Z,99430.66
2022-09-17T18:34:00.838Z,99438.41
2022-09-17T18:36:32.486Z,99439.16
2022-09-17T18:41:52.931Z,99438.09
2022-09-17T18:44:21.836Z,99447.41
2022-09-17T18:46:51.131Z,99445.53
2022-09-17T18:49:18.666Z,99449.78
2022-09-17T18:51:46.174Z,99458.41
2022-09-17T18:54:13.748Z,99458.47
2022-09-17T18:56:41.763Z,99469.06
2022-09-17T18:59:10.732Z,99473.44
2022-09-17T19:01:38.643Z,99475.97
2022-09-17T19:04:07.721Z,99480.19
2022-09-17T19:06:35.578Z,99476.59
2022-09-17T19:09:05.439Z,99484.47
2022-09-17T19:11:35.516Z,99493.09
2022-09-17T19:14:03.028Z,99498.34
2022-09-17T19:16:30.378Z,99499.97
2022-09-17T19:18:57.866Z,99507.00
2022-09-17T19:21:25.525Z,99503.47
2022-09-17T19:23:53.689Z,99505.34
2022-09-17T19:26:27.134Z,99510.72
2022-09-17T19:29:00.310Z,99505.59
2022-09-17T19:31:28.579Z,99513.66
2022-09-17T19:33:58.418Z,99506.94
2022-09-17T19:36:26.237Z,99517.56
2022-09-17T19:38:55.258Z,99515.06
2022-09-17T19:41:23.207Z,99508.97
2022-09-17T19:43:53.352Z,99510.75
2022-09-17T19:46:24.969Z,99511.78
2022-09-17T19:48:56.862Z,99510.00
2022-09-17T19:51:26.648Z,99512.63
2022-09-17T19:53:54.116Z,99516.16
2022-09-17T19:56:25.415Z,99509.13
2022-09-17T19:58:53.213Z,99507.38
2022-09-17T20:01:21.028Z,99501.34
2022-09-17T20:03:48.677Z,99510.22
2022-09-17T20:06:20.547Z,99505.72
2022-09-17T20:08:52.370Z,99508.41
2022-09-17T20:11:25.069Z,99516.44
2022-09-17T20:14:06.553Z,99512.91
2022-09-17T20:16:36.593Z,99507.53
2022-09-17T20:19:06.146Z,99518.00
2022-09-17T20:21:34.418Z,99514.34
2022-09-17T20:24:02.098Z,99517.03
2022-09-17T20:26:29.282Z,99524.97
2022-09-17T20:28:57.058Z,99517.97
2022-09-17T20:31:30.693Z,99526.84
2022-09-17T20:34:02.221Z,99523.16
2022-09-17T20:36:36.351Z,99524.84
2022-09-17T20:39:13.231Z,99531.75
2022-09-17T20:41:42.174Z,99536.25
2022-09-17T20:44:09.524Z,99546.66
2022-09-17T20:46:36.817Z,99540.41
2022-09-17T20:49:05.321Z,99550.03
2022-09-17T20:51:33.890Z,99558.84
2022-09-17T20:54:01.818Z,99543.94
2022-09-17T20:56:33.315Z,99553.03
2022-09-17T20:59:13.231Z,99547.66
2022-09-17T21:01:44.789Z,99547.59
2022-09-17T21:04:19.240Z,99546.56
2022-09-17T21:06:49.526Z,99550.09
2022-09-17T21:09:17.096Z,99549.53
2022-09-17T21:11:46.919Z,99551.59
2022-09-17T21:14:18.438Z,99548.84
2022-09-17T21:16:46.553Z,99553.34
2022-09-17T21:19:16.176Z,99547.25
2022-09-17T21:21:44.339Z,99542.13
2022-09-17T21:24:11.666Z,99547.25
2022-09-17T21:26:39.040Z,99539.47
2022-09-17T21:29:06.493Z,99551.75
2022-09-17T21:31:37.076Z,99553.69
2022-09-17T21:34:09.776Z,99557.13
2022-09-17T21:36:39.893Z,99556.09
2022-09-17T21:39:16.451Z,99555.06
2022-09-17T21:41:46.055Z,99552.09
2022-09-17T21:44:14.029Z,99563.56
2022-09-17T21:46:42.812Z,99560.06
2022-09-17T21:49:11.158Z,99556.69
2022-09-17T21:51:42.467Z,99556.00
2022-09-17T21:54:15.280Z,99556.81
2022-09-17T21:56:46.341Z,99562.38
2022-09-17T21:59:16.508Z,99570.19
2022-09-17T22:01:48.697Z,99564.94
2022-09-17T22:04:22.078Z,99573.81
2022-09-17T22:06:50.355Z,99585.97
2022-09-17T22:09:25.543Z,99577.81
2022-09-17T22:11:53.538Z,99595.28
2022-09-17T22:14:24.644Z,99586.44
2022-09-17T22:16:56.919Z,99584.56
2022-09-17T22:19:25.528Z,99591.53
2022-09-17T22:21:55.825Z,99593.19
2022-09-17T22:24:24.373Z,99601.13
2022-09-17T22:26:57.794Z,99591.38
2022-09-17T22:29:31.373Z,99589.34
2022-09-17T22:31:58.717Z,99589.06
2022-09-17T22:34:26.432Z,99592.66
2022-09-17T22:36:53.922Z,99596.25
2022-09-17T22:39:22.259Z,99593.59
2022-09-17T22:41:50.473Z,99588.47
2022-09-17T22:44:19.974Z,99582.19
2022-09-17T22:46:51.221Z,99594.31
2022-09-17T22:49:19.561Z,99589.56
2022-09-17T22:51:47.539Z,99589.47
2022-09-17T22:54:17.533Z,99585.06
2022-09-17T22:56:47.059Z,99589.78
2022-09-17T22:59:14.845Z,99592.31
2022-09-17T23:01:42.504Z,99597.44
2022-09-17T23:04:10.424Z,99592.78
2022-09-17T23:06:42.027Z,99599.78
2022-09-17T23:09:12.041Z,99601.28
2022-09-17T23:11:40.034Z,99605.38
2022-09-17T23:14:12.271Z,99598.03
2022-09-17T23:16:44.381Z,99610.28
2022-09-17T23:19:12.093Z,99612.03
2022-09-17T23:21:39.681Z,99610.31
2022-09-17T23:24:08.231Z,99609.50
2022-09-17T23:26:35.613Z,99617.34
2022-09-17T23:29:05.344Z,99612.94
2022-09-17T23:31:37.029Z,99619.00
2022-09-17T23:34:06.524Z,99613.66
2022-09-17T23:36:37.995Z,99612.50
2022-09-17T23:39:07.644Z,99622.13
2022-09-17T23:41:40.492Z,99612.28
2022-09-17T23:44:14.972Z,99612.13
2022-09-17T23:46:45.172Z,99621.69
2022-09-17T23:49:14.295Z,99623.31
2022-09-17T23:51:41.952Z,99620.50
2022-09-17T23:54:09.625Z,99610.66
2022-09-17T23:56:37.332Z,99613.22
2022-09-17T23:59:04.851Z,99614.84
